Time;durP1;ratioP1;P1;durP2;ratioP2;P2;SDS_P1;SDS_P2;PMS_P1;PMS_P2;Temp;Humidity;BMP_temperature;BMP_pressure;BME280_temperature;BME280_humidity;BME280_pressure;Samples;Min_cycle;Max_cycle;Signal;HPM_P1;HPM_P2
2022/06/17 04:10:05;;;;;;;11.68;5.90;;;18.10;1.00;;;;;;6216147;23;20020;-91
2022/06/17 04:13:46;;;;;;;;;;;;;;;;;;;;;
2022/06/17 04:22:17;;;;;;;5.07;3.28;;;18.10;1.00;;;;;;6187969;23;20020;-90
2022/06/17 04:25:36;;;;;;;5.53;3.30;;;18.20;1.00;;;;;;6155079;23;20017;-87
2022/06/17 10:40:38;;;;;;;7.13;4.82;;;24.40;1.00;;;;;;6231761;22;20020;-89
2022/06/17 10:43:21;;;;;;;7.22;3.95;;;24.50;1.00;;;;;;6219183;23;20023;-87
2022/06/17 12:34:43;;;;;;;2.47;1.95;;;27.00;1.00;;;;;;6224105;22;20021;-88
2022/06/17 12:37:31;;;;;;;3.47;2.00;;;27.00;1.00;;;;;;6189177;23;20452;-86
2022/06/17 12:40:30;;;;;;;4.30;1.80;;;27.00;1.00;;;;;;6165585;23;20021;-86
2022/06/17 12:43:25;;;;;;;3.50;1.88;;;27.10;1.00;;;;;;6206016;23;20112;-88
2022/06/17 12:46:08;;;;;;;1.52;1.35;;;27.20;1.00;;;;;;6189550;23;20016;-89
2022/06/17 12:48:51;;;;;;;5.22;2.05;;;27.30;1.00;;;;;;6191162;23;20021;-87
2022/06/17 12:59:05;;;;;;;5.00;1.70;;;27.60;1.00;;;;;;6218593;23;20043;-87
2022/06/17 13:01:48;;;;;;;2.00;1.58;;;27.70;1.00;;;;;;6217017;23;20464;-87
2022/06/17 13:04:15;;;;;;;2.53;1.55;;;27.60;1.00;;;;;;6217379;23;20087;-86
2022/06/17 14:56:20;;;;;;;3.15;1.88;;;29.40;1.00;;;;;;6178802;22;20074;-92
2022/06/17 15:04:03;;;;;;;3.03;1.95;;;29.50;1.00;;;;;;6056491;23;20014;-89
2022/06/17 15:06:57;;;;;;;4.28;2.30;;;29.30;1.00;;;;;;6039185;23;20110;-90
2022/06/17 15:09:29;;;;;;;10.25;2.28;;;29.00;1.00;;;;;;6131785;23;20551;-90
2022/06/17 15:12:01;;;;;;;5.28;2.20;;;29.30;1.00;;;;;;6190312;23;20055;-89
2022/06/17 15:14:42;;;;;;;2.85;2.00;;;29.00;1.00;;;;;;6165587;23;20467;-90
2022/06/17 18:57:58;;;;;;;3.13;1.80;;;28.10;1.00;;;;;;6160736;22;21401;-86
2022/06/17 19:00:28;;;;;;;2.88;2.20;;;27.90;1.00;;;;;;6205885;23;20050;-86
2022/06/17 19:02:58;;;;;;;3.97;1.90;;;28.00;1.00;;;;;;6261971;23;20128;-87
2022/06/17 19:05:34;;;;;;;4.38;2.60;;;27.90;1.00;;;;;;6213466;23;20013;-85
2022/06/17 19:19:24;;;;;;;5.18;2.08;;;27.70;1.00;;;;;;6247140;23;20015;-88
2022/06/17 19:22:09;;;;;;;4.07;2.05;;;27.60;1.00;;;;;;6195651;23;20448;-87
2022/06/17 19:24:54;;;;;;;4.70;2.67;;;27.60;1.00;;;;;;6196736;23;20445;-87
2022/06/17 19:27:35;;;;;;;4.13;2.10;;;27.60;1.00;;;;;;6205866;23;20021;-88
2022/06/17 19:30:04;;;;;;;3.00;2.28;;;27.50;1.00;;;;;;6189507;23;20028;-88
2022/06/17 19:32:45;;;;;;;2.53;2.13;;;27.50;1.00;;;;;;6189688;23;20017;-89
2022/06/17 19:35:18;;;;;;;2.35;1.80;;;27.30;1.00;;;;;;6189454;23;20436;-89
2022/06/17 19:37:47;;;;;;;3.42;1.67;;;27.30;1.00;;;;;;6216668;23;20087;-88
2022/06/17 19:40:26;;;;;;;2.85;1.80;;;27.20;1.00;;;;;;6164566;23;20038;-91
2022/06/17 19:42:56;;;;;;;2.92;1.95;;;27.20;1.00;;;;;;6189476;23;20087;-89
2022/06/17 19:45:51;;;;;;;2.60;1.83;;;27.00;1.00;;;;;;6215859;23;20008;-90
2022/06/17 19:48:20;;;;;;;4.25;2.30;;;26.90;1.00;;;;;;6164237;23;20021;-91
2022/06/17 19:50:50;;;;;;;2.45;1.77;;;26.90;1.00;;;;;;6188779;23;20183;-91
2022/06/17 19:53:22;;;;;;;4.38;2.50;;;26.70;1.00;;;;;;6188991;23;20021;-90
2022/06/17 19:55:56;;;;;;;5.93;2.40;;;26.80;1.00;;;;;;6183815;23;20468;-89
2022/06/17 19:58:26;;;;;;;4.53;2.13;;;26.70;1.00;;;;;;6161255;23;20047;-91
2022/06/17 20:01:41;;;;;;;3.38;1.70;;;26.70;1.00;;;;;;6167432;23;20028;-90
2022/06/17 20:08:08;;;;;;;3.38;1.85;;;26.60;1.00;;;;;;6203937;23;20039;-90
2022/06/17 20:10:36;;;;;;;3.60;2.45;;;26.40;1.00;;;;;;6167261;23;20352;-89
2022/06/17 20:13:05;;;;;;;2.45;1.77;;;26.40;1.00;;;;;;6192173;23;20017;-90
2022/06/17 21:08:46;;;;;;;3.65;1.85;;;25.20;1.00;;;;;;6231682;22;20024;-90
